sensor_id;sensor_type;location;lat;lon;timestamp;P1;durP1;ratioP1;P2;durP2;ratioP2
57055;SDS011;42945;51.718;5.324;2023-03-14T00:00:56;9.25;;;1.80;;
57055;SDS011;42945;51.718;5.324;2023-03-14T00:03:21;8.90;;;2.10;;
57055;SDS011;42945;51.718;5.324;2023-03-14T00:05:47;6.13;;;1.40;;
57055;SDS011;42945;51.718;5.324;2023-03-14T00:08:12;7.72;;;1.35;;
57055;SDS011;42945;51.718;5.324;2023-03-14T00:10:38;5.80;;;1.30;;
57055;SDS011;42945;51.718;5.324;2023-03-14T00:13:03;6.15;;;1.50;;
57055;SDS011;42945;51.718;5.324;2023-03-14T00:15:29;2.78;;;1.10;;
57055;SDS011;42945;51.718;5.324;2023-03-14T00:17:54;4.10;;;1.02;;
57055;SDS011;42945;51.718;5.324;2023-03-14T00:20:19;7.82;;;1.42;;
57055;SDS011;42945;51.718;5.324;2023-03-14T00:22:45;8.00;;;1.38;;
57055;SDS011;42945;51.718;5.324;2023-03-14T00:25:10;6.00;;;1.20;;
57055;SDS011;42945;51.718;5.324;2023-03-14T00:27:38;6.32;;;1.60;;
57055;SDS011;42945;51.718;5.324;2023-03-14T00:30:04;5.55;;;1.35;;
57055;SDS011;42945;51.718;5.324;2023-03-14T00:32:30;6.22;;;1.42;;
57055;SDS011;42945;51.718;5.324;2023-03-14T00:34:56;11.23;;;1.52;;
57055;SDS011;42945;51.718;5.324;2023-03-14T00:37:21;6.00;;;1.83;;
57055;SDS011;42945;51.718;5.324;2023-03-14T00:39:46;8.80;;;1.75;;
57055;SDS011;42945;51.718;5.324;2023-03-14T00:42:12;6.15;;;1.40;;
57055;SDS011;42945;51.718;5.324;2023-03-14T00:44:38;8.15;;;1.50;;
57055;SDS011;42945;51.718;5.324;2023-03-14T00:47:03;8.27;;;1.40;;
57055;SDS011;42945;51.718;5.324;2023-03-14T00:49:28;8.85;;;1.52;;
57055;SDS011;42945;51.718;5.324;2023-03-14T00:51:54;11.90;;;1.48;;
57055;SDS011;42945;51.718;5.324;2023-03-14T00:54:19;10.27;;;1.50;;
57055;SDS011;42945;51.718;5.324;2023-03-14T00:56:45;11.43;;;2.05;;
57055;SDS011;42945;51.718;5.324;2023-03-14T00:59:10;9.70;;;1.33;;
57055;SDS011;42945;51.718;5.324;2023-03-14T01:01:35;6.25;;;1.25;;
57055;SDS011;42945;51.718;5.324;2023-03-14T01:04:01;14.95;;;1.17;;
57055;SDS011;42945;51.718;5.324;2023-03-14T01:06:27;5.97;;;1.13;;
57055;SDS011;42945;51.718;5.324;2023-03-14T01:08:54;7.38;;;1.33;;
57055;SDS011;42945;51.718;5.324;2023-03-14T01:11:30;10.48;;;1.40;;
57055;SDS011;42945;51.718;5.324;2023-03-14T01:13:57;8.60;;;1.25;;
57055;SDS011;42945;51.718;5.324;2023-03-14T01:16:24;13.15;;;1.38;;
57055;SDS011;42945;51.718;5.324;2023-03-14T01:18:50;5.25;;;0.90;;
57055;SDS011;42945;51.718;5.324;2023-03-14T01:21:17;6.60;;;1.52;;
57055;SDS011;42945;51.718;5.324;2023-03-14T01:26:15;7.28;;;1.23;;
57055;SDS011;42945;51.718;5.324;2023-03-14T01:28:44;9.20;;;1.58;;
57055;SDS011;42945;51.718;5.324;2023-03-14T01:31:10;11.40;;;1.67;;
57055;SDS011;42945;51.718;5.324;2023-03-14T01:33:36;7.32;;;1.35;;
57055;SDS011;42945;51.718;5.324;2023-03-14T01:36:02;10.70;;;1.48;;
57055;SDS011;42945;51.718;5.324;2023-03-14T01:38:29;9.85;;;1.50;;
57055;SDS011;42945;51.718;5.324;2023-03-14T01:40:55;10.45;;;1.88;;
57055;SDS011;42945;51.718;5.324;2023-03-14T01:43:21;8.85;;;1.17;;
57055;SDS011;42945;51.718;5.324;2023-03-14T01:48:40;10.40;;;1.65;;
57055;SDS011;42945;51.718;5.324;2023-03-14T01:51:11;3.95;;;0.90;;
57055;SDS011;42945;51.718;5.324;2023-03-14T01:53:43;3.97;;;0.90;;
57055;SDS011;42945;51.718;5.324;2023-03-14T01:56:09;10.05;;;1.20;;
57055;SDS011;42945;51.718;5.324;2023-03-14T01:58:38;7.88;;;1.30;;
57055;SDS011;42945;51.718;5.324;2023-03-14T02:01:06;10.68;;;1.08;;
57055;SDS011;42945;51.718;5.324;2023-03-14T02:03:35;6.25;;;1.13;;
57055;SDS011;42945;51.718;5.324;2023-03-14T02:06:09;9.65;;;1.35;;
57055;SDS011;42945;51.718;5.324;2023-03-14T02:08:36;11.23;;;1.45;;
57055;SDS011;42945;51.718;5.324;2023-03-14T02:11:03;12.20;;;1.38;;
57055;SDS011;42945;51.718;5.324;2023-03-14T02:13:28;10.00;;;1.33;;
57055;SDS011;42945;51.718;5.324;2023-03-14T02:15:54;7.93;;;1.50;;
57055;SDS011;42945;51.718;5.324;2023-03-14T02:18:19;7.22;;;1.08;;
57055;SDS011;42945;51.718;5.324;2023-03-14T02:20:47;10.82;;;1.00;;
57055;SDS011;42945;51.718;5.324;2023-03-14T02:23:24;12.73;;;1.55;;
57055;SDS011;42945;51.718;5.324;2023-03-14T02:26:01;9.05;;;1.35;;
57055;SDS011;42945;51.718;5.324;2023-03-14T02:28:32;12.07;;;1.55;;
57055;SDS011;42945;51.718;5.324;2023-03-14T02:30:58;9.13;;;1.15;;
57055;SDS011;42945;51.718;5.324;2023-03-14T02:33:23;8.75;;;1.38;;
57055;SDS011;42945;51.718;5.324;2023-03-14T02:41:02;10.50;;;1.90;;
57055;SDS011;42945;51.718;5.324;2023-03-14T02:43:28;8.30;;;1.90;;
57055;SDS011;42945;51.718;5.324;2023-03-14T02:45:54;10.63;;;1.98;;
57055;SDS011;42945;51.718;5.324;2023-03-14T02:51:06;8.77;;;1.17;;
57055;SDS011;42945;51.718;5.324;2023-03-14T02:53:33;10.98;;;1.95;;
57055;SDS011;42945;51.718;5.324;2023-03-14T02:56:00;9.68;;;1.80;;
57055;SDS011;42945;51.718;5.324;2023-03-14T02:58:26;7.88;;;1.90;;
57055;SDS011;42945;51.718;5.324;2023-03-14T03:00:52;11.25;;;1.58;;
57055;SDS011;42945;51.718;5.324;2023-03-14T03:03:17;10.18;;;1.67;;
57055;SDS011;42945;51.718;5.324;2023-03-14T03:05:43;10.88;;;1.63;;
57055;SDS011;42945;51.718;5.324;2023-03-14T03:08:09;8.60;;;1.75;;
57055;SDS011;42945;51.718;5.324;2023-03-14T03:10:34;8.45;;;1.63;;
57055;SDS011;42945;51.718;5.324;2023-03-14T03:13:00;13.77;;;1.70;;
57055;SDS011;42945;51.718;5.324;2023-03-14T03:15:25;9.48;;;2.42;;
57055;SDS011;42945;51.718;5.324;2023-03-14T03:17:51;12.57;;;2.03;;
57055;SDS011;42945;51.718;5.324;2023-03-14T03:20:16;14.25;;;2.22;;
57055;SDS011;42945;51.718;5.324;2023-03-14T03:22:42;13.75;;;2.80;;
57055;SDS011;42945;51.718;5.324;2023-03-14T03:25:07;12.10;;;1.73;;
57055;SDS011;42945;51.718;5.324;2023-03-14T03:27:34;13.95;;;1.95;;
57055;SDS011;42945;51.718;5.324;2023-03-14T03:30:02;13.55;;;2.15;;
57055;SDS011;42945;51.718;5.324;2023-03-14T03:32:28;13.75;;;2.00;;
57055;SDS011;42945;51.718;5.324;2023-03-14T03:34:53;9.05;;;2.10;;
57055;SDS011;42945;51.718;5.324;2023-03-14T03:37:19;11.75;;;1.98;;
57055;SDS011;42945;51.718;5.324;2023-03-14T03:39:44;13.93;;;1.98;;
57055;SDS011;42945;51.718;5.324;2023-03-14T03:42:09;10.90;;;2.08;;
57055;SDS011;42945;51.718;5.324;2023-03-14T03:44:35;11.10;;;1.55;;
57055;SDS011;42945;51.718;5.324;2023-03-14T03:47:01;8.30;;;1.52;;
57055;SDS011;42945;51.718;5.324;2023-03-14T03:49:30;8.40;;;1.70;;
57055;SDS011;42945;51.718;5.324;2023-03-14T03:51:55;11.07;;;1.63;;
57055;SDS011;42945;51.718;5.324;2023-03-14T03:54:21;15.38;;;1.77;;
57055;SDS011;42945;51.718;5.324;2023-03-14T03:56:46;11.85;;;1.45;;
57055;SDS011;42945;51.718;5.324;2023-03-14T03:59:12;6.38;;;1.05;;
57055;SDS011;42945;51.718;5.324;2023-03-14T04:01:38;9.85;;;1.65;;
57055;SDS011;42945;51.718;5.324;2023-03-14T04:04:04;8.80;;;1.20;;
57055;SDS011;42945;51.718;5.324;2023-03-14T04:06:29;6.60;;;1.08;;
57055;SDS011;42945;51.718;5.324;2023-03-14T04:08:55;8.10;;;1.45;;
57055;SDS011;42945;51.718;5.324;2023-03-14T04:11:20;10.13;;;1.40;;
57055;SDS011;42945;51.718;5.324;2023-03-14T04:13:45;6.68;;;1.00;;
57055;SDS011;42945;51.718;5.324;2023-03-14T04:16:13;8.93;;;1.25;;
57055;SDS011;42945;51.718;5.324;2023-03-14T04:18:41;11.48;;;1.73;;
57055;SDS011;42945;51.718;5.324;2023-03-14T04:21:06;7.95;;;0.90;;
57055;SDS011;42945;51.718;5.324;2023-03-14T04:23:31;7.13;;;1.63;;
57055;SDS011;42945;51.718;5.324;2023-03-14T04:25:58;9.32;;;0.98;;
57055;SDS011;42945;51.718;5.324;2023-03-14T04:28:23;11.00;;;1.42;;
57055;SDS011;42945;51.718;5.324;2023-03-14T04:30:49;4.95;;;1.00;;
57055;SDS011;42945;51.718;5.324;2023-03-14T04:33:14;9.25;;;1.48;;
57055;SDS011;42945;51.718;5.324;2023-03-14T04:35:42;4.10;;;0.93;;
57055;SDS011;42945;51.718;5.324;2023-03-14T04:38:10;6.72;;;1.23;;
57055;SDS011;42945;51.718;5.324;2023-03-14T04:40:40;5.72;;;1.15;;
57055;SDS011;42945;51.718;5.324;2023-03-14T04:43:06;9.48;;;1.20;;
57055;SDS011;42945;51.718;5.324;2023-03-14T04:45:32;8.98;;;1.50;;
57055;SDS011;42945;51.718;5.324;2023-03-14T04:47:57;9.27;;;1.23;;
57055;SDS011;42945;51.718;5.324;2023-03-14T04:50:23;7.60;;;1.25;;
57055;SDS011;42945;51.718;5.324;2023-03-14T04:52:48;5.13;;;1.20;;
57055;SDS011;42945;51.718;5.324;2023-03-14T04:55:13;8.30;;;1.20;;
57055;SDS011;42945;51.718;5.324;2023-03-14T04:57:39;7.45;;;1.30;;
57055;SDS011;42945;51.718;5.324;2023-03-14T05:00:04;7.40;;;1.10;;
57055;SDS011;42945;51.718;5.324;2023-03-14T05:02:31;7.65;;;1.45;;
57055;SDS011;42945;51.718;5.324;2023-03-14T05:04:56;5.38;;;1.10;;
57055;SDS011;42945;51.718;5.324;2023-03-14T05:07:22;6.65;;;1.42;;
57055;SDS011;42945;51.718;5.324;2023-03-14T05:09:47;6.88;;;1.50;;
57055;SDS011;42945;51.718;5.324;2023-03-14T05:12:12;5.13;;;1.20;;
57055;SDS011;42945;51.718;5.324;2023-03-14T05:14:38;9.63;;;2.05;;
57055;SDS011;42945;51.718;5.324;2023-03-14T05:17:04;8.15;;;1.75;;
57055;SDS011;42945;51.718;5.324;2023-03-14T05:19:30;4.32;;;1.30;;
57055;SDS011;42945;51.718;5.324;2023-03-14T05:21:56;5.55;;;1.55;;
57055;SDS011;42945;51.718;5.324;2023-03-14T05:24:21;10.30;;;2.28;;
57055;SDS011;42945;51.718;5.324;2023-03-14T05:26:46;7.53;;;2.10;;
57055;SDS011;42945;51.718;5.324;2023-03-14T05:29:12;5.32;;;1.98;;
57055;SDS011;42945;51.718;5.324;2023-03-14T05:31:37;5.65;;;2.47;;
57055;SDS011;42945;51.718;5.324;2023-03-14T05:34:02;11.85;;;3.22;;
57055;SDS011;42945;51.718;5.324;2023-03-14T05:36:28;5.32;;;2.22;;
57055;SDS011;42945;51.718;5.324;2023-03-14T05:38:53;9.07;;;2.88;;
57055;SDS011;42945;51.718;5.324;2023-03-14T05:41:18;6.50;;;2.75;;
57055;SDS011;42945;51.718;5.324;2023-03-14T05:43:44;7.03;;;2.63;;
57055;SDS011;42945;51.718;5.324;2023-03-14T05:46:09;10.80;;;3.97;;
57055;SDS011;42945;51.718;5.324;2023-03-14T05:48:34;10.00;;;3.03;;
57055;SDS011;42945;51.718;5.324;2023-03-14T05:50:59;10.73;;;3.50;;
57055;SDS011;42945;51.718;5.324;2023-03-14T05:53:25;6.95;;;3.35;;
57055;SDS011;42945;51.718;5.324;2023-03-14T05:55:51;9.48;;;3.47;;
57055;SDS011;42945;51.718;5.324;2023-03-14T05:58:17;9.40;;;3.67;;
57055;SDS011;42945;51.718;5.324;2023-03-14T06:00:44;11.95;;;3.22;;
57055;SDS011;42945;51.718;5.324;2023-03-14T06:03:09;8.40;;;3.58;;
57055;SDS011;42945;51.718;5.324;2023-03-14T06:05:35;10.05;;;3.78;;
57055;SDS011;42945;51.718;5.324;2023-03-14T06:08:00;11.00;;;3.65;;
57055;SDS011;42945;51.718;5.324;2023-03-14T06:10:25;11.38;;;4.07;;
57055;SDS011;42945;51.718;5.324;2023-03-14T06:12:51;8.35;;;4.20;;
57055;SDS011;42945;51.718;5.324;2023-03-14T06:15:16;12.38;;;4.45;;
57055;SDS011;42945;51.718;5.324;2023-03-14T06:17:41;9.98;;;4.00;;
57055;SDS011;42945;51.718;5.324;2023-03-14T06:20:07;13.73;;;4.57;;
57055;SDS011;42945;51.718;5.324;2023-03-14T06:22:34;12.90;;;5.40;;
57055;SDS011;42945;51.718;5.324;2023-03-14T06:24:59;14.57;;;4.65;;
57055;SDS011;42945;51.718;5.324;2023-03-14T06:27:24;11.25;;;4.85;;
57055;SDS011;42945;51.718;5.324;2023-03-14T06:29:50;11.60;;;5.00;;
57055;SDS011;42945;51.718;5.324;2023-03-14T06:32:15;12.63;;;5.22;;
57055;SDS011;42945;51.718;5.324;2023-03-14T06:34:40;14.32;;;4.90;;
57055;SDS011;42945;51.718;5.324;2023-03-14T06:37:06;14.32;;;5.55;;
57055;SDS011;42945;51.718;5.324;2023-03-14T06:39:31;16.25;;;6.18;;
57055;SDS011;42945;51.718;5.324;2023-03-14T06:41:58;12.02;;;5.22;;
57055;SDS011;42945;51.718;5.324;2023-03-14T06:44:23;15.15;;;4.88;;
57055;SDS011;42945;51.718;5.324;2023-03-14T06:46:48;12.52;;;5.50;;
57055;SDS011;42945;51.718;5.324;2023-03-14T06:49:13;16.58;;;5.55;;
57055;SDS011;42945;51.718;5.324;2023-03-14T06:51:39;11.90;;;5.25;;
57055;SDS011;42945;51.718;5.324;2023-03-14T06:54:04;10.93;;;4.95;;
57055;SDS011;42945;51.718;5.324;2023-03-14T06:56:29;13.05;;;5.97;;
57055;SDS011;42945;51.718;5.324;2023-03-14T06:58:56;12.88;;;6.47;;
57055;SDS011;42945;51.718;5.324;2023-03-14T07:01:25;17.00;;;6.22;;
57055;SDS011;42945;51.718;5.324;2023-03-14T07:03:52;10.00;;;5.10;;
57055;SDS011;42945;51.718;5.324;2023-03-14T07:06:18;4.32;;;1.77;;
57055;SDS011;42945;51.718;5.324;2023-03-14T07:08:43;2.05;;;0.70;;
57055;SDS011;42945;51.718;5.324;2023-03-14T07:11:09;2.88;;;0.50;;
57055;SDS011;42945;51.718;5.324;2023-03-14T07:13:36;3.92;;;0.55;;
57055;SDS011;42945;51.718;5.324;2023-03-14T07:16:02;1.65;;;0.40;;
57055;SDS011;42945;51.718;5.324;2023-03-14T07:18:27;3.70;;;0.68;;
57055;SDS011;42945;51.718;5.324;2023-03-14T07:20:53;2.25;;;0.28;;
57055;SDS011;42945;51.718;5.324;2023-03-14T07:23:19;2.38;;;0.38;;
57055;SDS011;42945;51.718;5.324;2023-03-14T07:25:44;2.20;;;0.63;;
57055;SDS011;42945;51.718;5.324;2023-03-14T07:28:13;0.98;;;0.50;;
57055;SDS011;42945;51.718;5.324;2023-03-14T07:30:38;1.85;;;0.60;;
57055;SDS011;42945;51.718;5.324;2023-03-14T07:33:03;4.05;;;0.52;;
57055;SDS011;42945;51.718;5.324;2023-03-14T07:35:29;2.90;;;0.70;;
57055;SDS011;42945;51.718;5.324;2023-03-14T07:37:54;2.25;;;0.75;;
57055;SDS011;42945;51.718;5.324;2023-03-14T07:40:20;6.13;;;0.80;;
57055;SDS011;42945;51.718;5.324;2023-03-14T07:42:46;3.00;;;0.82;;
57055;SDS011;42945;51.718;5.324;2023-03-14T07:45:11;2.72;;;1.10;;
57055;SDS011;42945;51.718;5.324;2023-03-14T07:47:37;4.10;;;1.05;;
57055;SDS011;42945;51.718;5.324;2023-03-14T07:50:03;4.40;;;0.90;;
57055;SDS011;42945;51.718;5.324;2023-03-14T07:52:29;3.97;;;0.70;;
57055;SDS011;42945;51.718;5.324;2023-03-14T07:54:55;2.45;;;0.70;;
57055;SDS011;42945;51.718;5.324;2023-03-14T07:57:22;8.05;;;2.03;;
57055;SDS011;42945;51.718;5.324;2023-03-14T07:59:48;2.92;;;0.90;;
57055;SDS011;42945;51.718;5.324;2023-03-14T08:02:15;3.53;;;1.35;;
57055;SDS011;42945;51.718;5.324;2023-03-14T08:04:40;5.13;;;0.75;;
57055;SDS011;42945;51.718;5.324;2023-03-14T08:07:06;3.97;;;1.35;;
57055;SDS011;42945;51.718;5.324;2023-03-14T08:09:31;4.05;;;1.08;;
57055;SDS011;42945;51.718;5.324;2023-03-14T08:11:57;2.60;;;1.42;;
57055;SDS011;42945;51.718;5.324;2023-03-14T08:14:22;6.78;;;1.30;;
57055;SDS011;42945;51.718;5.324;2023-03-14T08:16:50;5.90;;;1.10;;
57055;SDS011;42945;51.718;5.324;2023-03-14T08:19:16;5.20;;;0.77;;
57055;SDS011;42945;51.718;5.324;2023-03-14T08:21:42;2.80;;;0.98;;
57055;SDS011;42945;51.718;5.324;2023-03-14T08:24:07;6.28;;;0.80;;
57055;SDS011;42945;51.718;5.324;2023-03-14T08:26:33;4.13;;;0.82;;
57055;SDS011;42945;51.718;5.324;2023-03-14T08:28:58;5.85;;;1.77;;
57055;SDS011;42945;51.718;5.324;2023-03-14T08:31:24;4.93;;;0.80;;
57055;SDS011;42945;51.718;5.324;2023-03-14T08:33:49;4.45;;;0.90;;
57055;SDS011;42945;51.718;5.324;2023-03-14T08:36:17;7.20;;;1.02;;
57055;SDS011;42945;51.718;5.324;2023-03-14T08:38:43;4.80;;;0.95;;
57055;SDS011;42945;51.718;5.324;2023-03-14T08:41:08;0.80;;;0.40;;
57055;SDS011;42945;51.718;5.324;2023-03-14T08:43:34;2.90;;;0.75;;
57055;SDS011;42945;51.718;5.324;2023-03-14T08:46:00;5.00;;;0.60;;
57055;SDS011;42945;51.718;5.324;2023-03-14T08:48:26;2.80;;;0.52;;
57055;SDS011;42945;51.718;5.324;2023-03-14T08:50:52;2.42;;;0.30;;
57055;SDS011;42945;51.718;5.324;2023-03-14T08:53:19;2.28;;;0.55;;
57055;SDS011;42945;51.718;5.324;2023-03-14T08:55:45;2.83;;;0.45;;
57055;SDS011;42945;51.718;5.324;2023-03-14T08:58:11;4.00;;;0.45;;
57055;SDS011;42945;51.718;5.324;2023-03-14T09:00:36;3.35;;;0.60;;
57055;SDS011;42945;51.718;5.324;2023-03-14T09:03:01;6.22;;;1.15;;
57055;SDS011;42945;51.718;5.324;2023-03-14T09:05:26;4.25;;;1.38;;
57055;SDS011;42945;51.718;5.324;2023-03-14T09:07:52;3.50;;;0.70;;
57055;SDS011;42945;51.718;5.324;2023-03-14T09:10:17;3.90;;;0.50;;
57055;SDS011;42945;51.718;5.324;2023-03-14T09:12:42;2.38;;;0.30;;
57055;SDS011;42945;51.718;5.324;2023-03-14T09:15:08;0.10;;;0.00;;
57055;SDS011;42945;51.718;5.324;2023-03-14T09:17:34;4.43;;;0.20;;
57055;SDS011;42945;51.718;5.324;2023-03-14T09:19:59;1.52;;;0.20;;
57055;SDS011;42945;51.718;5.324;2023-03-14T09:22:24;1.60;;;0.10;;
57055;SDS011;42945;51.718;5.324;2023-03-14T09:24:50;1.17;;;0.10;;
57055;SDS011;42945;51.718;5.324;2023-03-14T09:27:15;1.75;;;0.10;;
57055;SDS011;42945;51.718;5.324;2023-03-14T09:29:40;0.77;;;0.13;;
57055;SDS011;42945;51.718;5.324;2023-03-14T09:32:06;0.35;;;0.10;;
57055;SDS011;42945;51.718;5.324;2023-03-14T09:34:31;0.30;;;0.10;;
57055;SDS011;42945;51.718;5.324;2023-03-14T09:36:56;2.40;;;0.30;;
57055;SDS011;42945;51.718;5.324;2023-03-14T09:39:22;1.55;;;0.30;;
57055;SDS011;42945;51.718;5.324;2023-03-14T09:41:47;1.52;;;0.20;;
57055;SDS011;42945;51.718;5.324;2023-03-14T09:44:16;2.85;;;0.82;;
57055;SDS011;42945;51.718;5.324;2023-03-14T09:46:54;8.15;;;0.40;;
57055;SDS011;42945;51.718;5.324;2023-03-14T09:49:36;6.25;;;0.30;;
57055;SDS011;42945;51.718;5.324;2023-03-14T09:52:21;6.22;;;0.50;;
57055;SDS011;42945;51.718;5.324;2023-03-14T09:54:53;5.13;;;0.60;;
57055;SDS011;42945;51.718;5.324;2023-03-14T09:57:23;6.82;;;0.40;;
57055;SDS011;42945;51.718;5.324;2023-03-14T09:59:51;2.38;;;0.32;;
57055;SDS011;42945;51.718;5.324;2023-03-14T10:02:20;5.93;;;0.50;;
57055;SDS011;42945;51.718;5.324;2023-03-14T10:04:48;3.00;;;0.47;;
57055;SDS011;42945;51.718;5.324;2023-03-14T10:07:16;10.55;;;0.90;;
57055;SDS011;42945;51.718;5.324;2023-03-14T10:09:45;9.93;;;0.47;;
57055;SDS011;42945;51.718;5.324;2023-03-14T10:12:13;11.18;;;1.10;;
57055;SDS011;42945;51.718;5.324;2023-03-14T10:14:44;5.57;;;0.45;;
57055;SDS011;42945;51.718;5.324;2023-03-14T10:17:12;9.13;;;0.98;;
57055;SDS011;42945;51.718;5.324;2023-03-14T10:19:51;5.82;;;0.75;;
57055;SDS011;42945;51.718;5.324;2023-03-14T10:22:19;11.07;;;0.90;;
57055;SDS011;42945;51.718;5.324;2023-03-14T10:24:46;10.75;;;1.15;;
57055;SDS011;42945;51.718;5.324;2023-03-14T10:27:20;11.40;;;1.23;;
57055;SDS011;42945;51.718;5.324;2023-03-14T10:29:54;10.95;;;1.02;;
57055;SDS011;42945;51.718;5.324;2023-03-14T10:32:34;9.82;;;0.75;;
57055;SDS011;42945;51.718;5.324;2023-03-14T10:35:06;15.38;;;1.00;;
57055;SDS011;42945;51.718;5.324;2023-03-14T10:37:47;10.15;;;0.90;;
57055;SDS011;42945;51.718;5.324;2023-03-14T10:40:18;12.10;;;1.02;;
57055;SDS011;42945;51.718;5.324;2023-03-14T10:42:45;8.20;;;1.48;;
57055;SDS011;42945;51.718;5.324;2023-03-14T10:45:28;16.85;;;1.60;;
57055;SDS011;42945;51.718;5.324;2023-03-14T10:48:23;16.88;;;1.23;;
57055;SDS011;42945;51.718;5.324;2023-03-14T10:51:06;11.25;;;1.60;;
57055;SDS011;42945;51.718;5.324;2023-03-14T10:58:38;12.23;;;1.17;;
57055;SDS011;42945;51.718;5.324;2023-03-14T11:01:11;9.52;;;1.05;;
57055;SDS011;42945;51.718;5.324;2023-03-14T11:06:32;8.18;;;0.63;;
57055;SDS011;42945;51.718;5.324;2023-03-14T11:11:45;9.75;;;1.33;;
57055;SDS011;42945;51.718;5.324;2023-03-14T11:17:11;7.35;;;1.13;;
57055;SDS011;42945;51.718;5.324;2023-03-14T11:19:50;11.60;;;1.50;;
57055;SDS011;42945;51.718;5.324;2023-03-14T11:22:28;18.52;;;2.70;;
57055;SDS011;42945;51.718;5.324;2023-03-14T11:28:19;15.25;;;1.92;;
57055;SDS011;42945;51.718;5.324;2023-03-14T11:30:53;14.48;;;1.55;;
57055;SDS011;42945;51.718;5.324;2023-03-14T11:38:52;20.35;;;2.80;;
57055;SDS011;42945;51.718;5.324;2023-03-14T11:41:29;19.65;;;2.10;;
57055;SDS011;42945;51.718;5.324;2023-03-14T11:43:59;10.65;;;1.80;;
57055;SDS011;42945;51.718;5.324;2023-03-14T11:46:36;9.38;;;1.30;;
57055;SDS011;42945;51.718;5.324;2023-03-14T11:49:25;9.77;;;1.08;;
57055;SDS011;42945;51.718;5.324;2023-03-14T11:52:14;10.68;;;1.17;;
57055;SDS011;42945;51.718;5.324;2023-03-14T11:54:52;15.27;;;1.92;;
57055;SDS011;42945;51.718;5.324;2023-03-14T11:57:23;9.05;;;1.63;;
57055;SDS011;42945;51.718;5.324;2023-03-14T12:13:16;28.38;;;2.50;;
57055;SDS011;42945;51.718;5.324;2023-03-14T12:18:28;14.88;;;1.92;;
57055;SDS011;42945;51.718;5.324;2023-03-14T12:21:03;11.50;;;2.03;;
57055;SDS011;42945;51.718;5.324;2023-03-14T12:23:34;23.55;;;1.83;;
57055;SDS011;42945;51.718;5.324;2023-03-14T12:28:37;24.98;;;2.97;;
57055;SDS011;42945;51.718;5.324;2023-03-14T12:31:35;15.57;;;1.90;;
57055;SDS011;42945;51.718;5.324;2023-03-14T12:34:28;17.70;;;1.60;;
57055;SDS011;42945;51.718;5.324;2023-03-14T12:39:21;15.80;;;2.35;;
57055;SDS011;42945;51.718;5.324;2023-03-14T12:46:58;11.73;;;2.03;;
57055;SDS011;42945;51.718;5.324;2023-03-14T12:49:30;8.07;;;1.30;;
57055;SDS011;42945;51.718;5.324;2023-03-14T12:52:00;12.35;;;1.58;;
57055;SDS011;42945;51.718;5.324;2023-03-14T13:00:00;9.02;;;0.95;;
57055;SDS011;42945;51.718;5.324;2023-03-14T13:02:43;8.10;;;1.08;;
57055;SDS011;42945;51.718;5.324;2023-03-14T13:05:11;11.43;;;3.38;;
57055;SDS011;42945;51.718;5.324;2023-03-14T13:15:24;10.55;;;1.00;;
57055;SDS011;42945;51.718;5.324;2023-03-14T13:17:54;13.70;;;1.42;;
57055;SDS011;42945;51.718;5.324;2023-03-14T13:20:31;8.00;;;0.98;;
57055;SDS011;42945;51.718;5.324;2023-03-14T13:23:00;4.57;;;0.90;;
57055;SDS011;42945;51.718;5.324;2023-03-14T13:25:29;11.43;;;1.20;;
57055;SDS011;42945;51.718;5.324;2023-03-14T13:27:57;11.33;;;0.87;;
57055;SDS011;42945;51.718;5.324;2023-03-14T13:30:24;6.15;;;0.70;;
57055;SDS011;42945;51.718;5.324;2023-03-14T13:32:53;6.03;;;0.80;;
57055;SDS011;42945;51.718;5.324;2023-03-14T13:35:26;13.95;;;1.05;;
57055;SDS011;42945;51.718;5.324;2023-03-14T13:37:58;6.60;;;0.90;;
57055;SDS011;42945;51.718;5.324;2023-03-14T13:40:32;6.25;;;1.33;;
57055;SDS011;42945;51.718;5.324;2023-03-14T13:43:00;8.68;;;1.17;;
57055;SDS011;42945;51.718;5.324;2023-03-14T13:45:31;14.02;;;1.30;;
57055;SDS011;42945;51.718;5.324;2023-03-14T13:48:07;8.10;;;2.20;;
57055;SDS011;42945;51.718;5.324;2023-03-14T13:50:34;5.88;;;1.25;;
57055;SDS011;42945;51.718;5.324;2023-03-14T13:53:00;3.97;;;0.50;;
57055;SDS011;42945;51.718;5.324;2023-03-14T13:55:25;8.73;;;1.23;;
57055;SDS011;42945;51.718;5.324;2023-03-14T13:57:52;4.90;;;1.17;;
57055;SDS011;42945;51.718;5.324;2023-03-14T14:00:21;6.05;;;1.00;;
57055;SDS011;42945;51.718;5.324;2023-03-14T14:02:51;5.35;;;0.55;;
57055;SDS011;42945;51.718;5.324;2023-03-14T14:05:18;7.93;;;1.10;;
57055;SDS011;42945;51.718;5.324;2023-03-14T14:07:45;9.60;;;1.17;;
57055;SDS011;42945;51.718;5.324;2023-03-14T14:10:11;9.55;;;0.65;;
57055;SDS011;42945;51.718;5.324;2023-03-14T14:15:31;8.73;;;1.20;;
57055;SDS011;42945;51.718;5.324;2023-03-14T14:18:06;9.45;;;1.38;;
57055;SDS011;42945;51.718;5.324;2023-03-14T14:20:40;16.30;;;1.13;;
57055;SDS011;42945;51.718;5.324;2023-03-14T14:23:11;9.38;;;1.13;;
57055;SDS011;42945;51.718;5.324;2023-03-14T14:25:39;8.00;;;1.20;;
57055;SDS011;42945;51.718;5.324;2023-03-14T14:30:45;10.35;;;1.23;;
57055;SDS011;42945;51.718;5.324;2023-03-14T14:33:17;8.45;;;0.90;;
57055;SDS011;42945;51.718;5.324;2023-03-14T14:35:51;4.70;;;0.68;;
57055;SDS011;42945;51.718;5.324;2023-03-14T14:38:20;8.90;;;1.33;;
57055;SDS011;42945;51.718;5.324;2023-03-14T14:40:46;9.65;;;0.88;;
57055;SDS011;42945;51.718;5.324;2023-03-14T14:43:22;8.30;;;1.15;;
57055;SDS011;42945;51.718;5.324;2023-03-14T14:45:51;9.77;;;1.40;;
57055;SDS011;42945;51.718;5.324;2023-03-14T14:48:22;7.97;;;1.05;;
57055;SDS011;42945;51.718;5.324;2023-03-14T14:51:04;10.10;;;1.17;;
57055;SDS011;42945;51.718;5.324;2023-03-14T14:53:36;7.30;;;1.13;;
57055;SDS011;42945;51.718;5.324;2023-03-14T14:56:07;8.27;;;0.95;;
57055;SDS011;42945;51.718;5.324;2023-03-14T14:58:50;6.32;;;0.60;;
57055;SDS011;42945;51.718;5.324;2023-03-14T15:01:16;10.20;;;1.10;;
57055;SDS011;42945;51.718;5.324;2023-03-14T15:03:42;5.53;;;0.70;;
57055;SDS011;42945;51.718;5.324;2023-03-14T15:06:11;10.05;;;0.85;;
57055;SDS011;42945;51.718;5.324;2023-03-14T15:08:39;6.78;;;1.50;;
57055;SDS011;42945;51.718;5.324;2023-03-14T15:11:05;5.28;;;0.90;;
57055;SDS011;42945;51.718;5.324;2023-03-14T15:13:30;5.60;;;0.80;;
57055;SDS011;42945;51.718;5.324;2023-03-14T15:15:55;5.30;;;0.80;;
57055;SDS011;42945;51.718;5.324;2023-03-14T15:18:22;8.85;;;0.95;;
57055;SDS011;42945;51.718;5.324;2023-03-14T15:20:53;5.78;;;1.58;;
57055;SDS011;42945;51.718;5.324;2023-03-14T15:23:19;4.22;;;0.80;;
57055;SDS011;42945;51.718;5.324;2023-03-14T15:25:47;7.75;;;0.90;;
57055;SDS011;42945;51.718;5.324;2023-03-14T15:28:24;7.18;;;0.90;;
57055;SDS011;42945;51.718;5.324;2023-03-14T15:30:55;6.90;;;0.77;;
57055;SDS011;42945;51.718;5.324;2023-03-14T15:33:22;11.30;;;1.77;;
57055;SDS011;42945;51.718;5.324;2023-03-14T15:35:49;15.90;;;2.72;;
57055;SDS011;42945;51.718;5.324;2023-03-14T15:38:16;9.93;;;1.50;;
57055;SDS011;42945;51.718;5.324;2023-03-14T15:40:46;11.90;;;2.22;;
57055;SDS011;42945;51.718;5.324;2023-03-14T15:43:11;19.10;;;5.25;;
57055;SDS011;42945;51.718;5.324;2023-03-14T15:45:37;10.32;;;2.00;;
57055;SDS011;42945;51.718;5.324;2023-03-14T15:48:02;13.32;;;1.73;;
57055;SDS011;42945;51.718;5.324;2023-03-14T15:50:28;13.38;;;2.13;;
57055;SDS011;42945;51.718;5.324;2023-03-14T15:52:53;8.00;;;1.92;;
57055;SDS011;42945;51.718;5.324;2023-03-14T15:55:19;6.45;;;1.08;;
57055;SDS011;42945;51.718;5.324;2023-03-14T15:57:44;6.85;;;0.57;;
57055;SDS011;42945;51.718;5.324;2023-03-14T16:00:14;9.15;;;1.15;;
57055;SDS011;42945;51.718;5.324;2023-03-14T16:02:46;9.55;;;1.42;;
57055;SDS011;42945;51.718;5.324;2023-03-14T16:05:12;12.85;;;2.33;;
57055;SDS011;42945;51.718;5.324;2023-03-14T16:07:39;6.40;;;1.20;;